sensor_id;sensor_type;location;lat;lon;timestamp;P1;durP1;ratioP1;P2;durP2;ratioP2
75971;SDS011;64651;47.540;19.088;2024-03-07T00:01:08;16.10;;;6.93;;
75971;SDS011;64651;47.540;19.088;2024-03-07T00:06:11;19.05;;;7.50;;
75971;SDS011;64651;47.540;19.088;2024-03-07T00:11:13;17.62;;;7.40;;
75971;SDS011;64651;47.540;19.088;2024-03-07T00:16:15;15.17;;;6.23;;
75971;SDS011;64651;47.540;19.088;2024-03-07T00:21:17;15.55;;;6.75;;
75971;SDS011;64651;47.540;19.088;2024-03-07T00:26:19;15.87;;;7.07;;
75971;SDS011;64651;47.540;19.088;2024-03-07T00:31:21;14.85;;;6.47;;
75971;SDS011;64651;47.540;19.088;2024-03-07T00:36:23;16.15;;;6.28;;
75971;SDS011;64651;47.540;19.088;2024-03-07T00:41:26;14.40;;;6.60;;
75971;SDS011;64651;47.540;19.088;2024-03-07T00:46:28;15.50;;;6.30;;
75971;SDS011;64651;47.540;19.088;2024-03-07T00:51:31;14.63;;;6.30;;
75971;SDS011;64651;47.540;19.088;2024-03-07T00:56:33;14.20;;;6.03;;
75971;SDS011;64651;47.540;19.088;2024-03-07T01:01:35;14.38;;;6.18;;
75971;SDS011;64651;47.540;19.088;2024-03-07T01:06:40;15.73;;;6.40;;
75971;SDS011;64651;47.540;19.088;2024-03-07T01:11:43;14.95;;;5.65;;
75971;SDS011;64651;47.540;19.088;2024-03-07T01:16:49;15.57;;;5.97;;
75971;SDS011;64651;47.540;19.088;2024-03-07T01:21:52;13.82;;;5.82;;
75971;SDS011;64651;47.540;19.088;2024-03-07T01:26:54;13.93;;;6.05;;
75971;SDS011;64651;47.540;19.088;2024-03-07T01:31:56;13.67;;;5.67;;
75971;SDS011;64651;47.540;19.088;2024-03-07T01:36:58;13.35;;;5.95;;
75971;SDS011;64651;47.540;19.088;2024-03-07T01:42:01;13.00;;;5.57;;
75971;SDS011;64651;47.540;19.088;2024-03-07T01:47:03;13.88;;;5.40;;
75971;SDS011;64651;47.540;19.088;2024-03-07T01:52:05;15.23;;;5.57;;
75971;SDS011;64651;47.540;19.088;2024-03-07T01:57:10;12.80;;;4.87;;
75971;SDS011;64651;47.540;19.088;2024-03-07T02:02:15;13.95;;;5.40;;
75971;SDS011;64651;47.540;19.088;2024-03-07T02:07:17;14.47;;;5.37;;
75971;SDS011;64651;47.540;19.088;2024-03-07T02:12:19;16.95;;;6.10;;
75971;SDS011;64651;47.540;19.088;2024-03-07T02:17:21;13.85;;;5.30;;
75971;SDS011;64651;47.540;19.088;2024-03-07T02:22:23;13.87;;;4.60;;
75971;SDS011;64651;47.540;19.088;2024-03-07T02:27:28;13.52;;;5.35;;
75971;SDS011;64651;47.540;19.088;2024-03-07T02:32:31;12.77;;;5.30;;
75971;SDS011;64651;47.540;19.088;2024-03-07T02:37:34;11.93;;;5.10;;
75971;SDS011;64651;47.540;19.088;2024-03-07T02:42:36;13.80;;;5.32;;
75971;SDS011;64651;47.540;19.088;2024-03-07T02:47:39;13.50;;;4.93;;
75971;SDS011;64651;47.540;19.088;2024-03-07T02:52:41;12.07;;;5.25;;
75971;SDS011;64651;47.540;19.088;2024-03-07T02:57:44;10.63;;;4.50;;
75971;SDS011;64651;47.540;19.088;2024-03-07T03:02:47;10.63;;;4.25;;
75971;SDS011;64651;47.540;19.088;2024-03-07T03:07:50;12.75;;;4.97;;
75971;SDS011;64651;47.540;19.088;2024-03-07T03:12:56;11.73;;;4.27;;
75971;SDS011;64651;47.540;19.088;2024-03-07T03:18:01;12.90;;;5.00;;
75971;SDS011;64651;47.540;19.088;2024-03-07T03:23:05;12.87;;;4.33;;
75971;SDS011;64651;47.540;19.088;2024-03-07T03:28:21;10.35;;;4.12;;
75971;SDS011;64651;47.540;19.088;2024-03-07T03:33:23;10.93;;;3.97;;
75971;SDS011;64651;47.540;19.088;2024-03-07T03:38:26;11.10;;;3.97;;
75971;SDS011;64651;47.540;19.088;2024-03-07T03:43:28;11.93;;;4.68;;
75971;SDS011;64651;47.540;19.088;2024-03-07T03:48:32;11.43;;;4.80;;
75971;SDS011;64651;47.540;19.088;2024-03-07T03:53:35;12.48;;;4.45;;
75971;SDS011;64651;47.540;19.088;2024-03-07T03:58:41;11.23;;;4.30;;
75971;SDS011;64651;47.540;19.088;2024-03-07T04:03:45;11.90;;;4.77;;
75971;SDS011;64651;47.540;19.088;2024-03-07T04:08:50;12.27;;;5.03;;
75971;SDS011;64651;47.540;19.088;2024-03-07T04:13:53;11.43;;;4.50;;
75971;SDS011;64651;47.540;19.088;2024-03-07T04:18:56;14.10;;;5.07;;
75971;SDS011;64651;47.540;19.088;2024-03-07T04:23:58;11.93;;;4.30;;
75971;SDS011;64651;47.540;19.088;2024-03-07T04:29:00;12.27;;;4.60;;
75971;SDS011;64651;47.540;19.088;2024-03-07T04:34:03;12.00;;;3.90;;
75971;SDS011;64651;47.540;19.088;2024-03-07T04:39:05;11.43;;;4.40;;
75971;SDS011;64651;47.540;19.088;2024-03-07T04:44:07;10.90;;;4.10;;
75971;SDS011;64651;47.540;19.088;2024-03-07T04:49:10;13.82;;;4.80;;
75971;SDS011;64651;47.540;19.088;2024-03-07T04:54:15;13.20;;;4.73;;
75971;SDS011;64651;47.540;19.088;2024-03-07T04:59:18;12.27;;;4.62;;
75971;SDS011;64651;47.540;19.088;2024-03-07T05:04:21;15.10;;;5.47;;
75971;SDS011;64651;47.540;19.088;2024-03-07T05:09:25;13.75;;;4.87;;
75971;SDS011;64651;47.540;19.088;2024-03-07T05:14:28;11.43;;;4.87;;
75971;SDS011;64651;47.540;19.088;2024-03-07T05:19:31;13.23;;;5.00;;
75971;SDS011;64651;47.540;19.088;2024-03-07T05:24:36;12.05;;;4.43;;
75971;SDS011;64651;47.540;19.088;2024-03-07T05:29:39;11.83;;;4.27;;
75971;SDS011;64651;47.540;19.088;2024-03-07T05:34:41;13.60;;;4.60;;
75971;SDS011;64651;47.540;19.088;2024-03-07T05:39:45;11.50;;;4.53;;
75971;SDS011;64651;47.540;19.088;2024-03-07T05:44:47;11.77;;;4.30;;
75971;SDS011;64651;47.540;19.088;2024-03-07T05:49:49;11.77;;;4.53;;
75971;SDS011;64651;47.540;19.088;2024-03-07T05:54:52;11.17;;;4.40;;
75971;SDS011;64651;47.540;19.088;2024-03-07T05:59:55;10.75;;;4.12;;
75971;SDS011;64651;47.540;19.088;2024-03-07T06:04:58;12.32;;;4.65;;
75971;SDS011;64651;47.540;19.088;2024-03-07T06:10:00;11.57;;;4.20;;
75971;SDS011;64651;47.540;19.088;2024-03-07T06:15:03;11.70;;;4.53;;
75971;SDS011;64651;47.540;19.088;2024-03-07T06:20:06;11.07;;;4.37;;
75971;SDS011;64651;47.540;19.088;2024-03-07T06:25:24;10.02;;;3.97;;
75971;SDS011;64651;47.540;19.088;2024-03-07T06:30:40;10.88;;;4.20;;
75971;SDS011;64651;47.540;19.088;2024-03-07T06:35:47;11.40;;;4.03;;
75971;SDS011;64651;47.540;19.088;2024-03-07T06:40:49;17.62;;;6.87;;
75971;SDS011;64651;47.540;19.088;2024-03-07T06:45:52;13.13;;;4.30;;
75971;SDS011;64651;47.540;19.088;2024-03-07T06:50:54;9.68;;;4.05;;
75971;SDS011;64651;47.540;19.088;2024-03-07T06:55:56;11.88;;;4.45;;
75971;SDS011;64651;47.540;19.088;2024-03-07T07:00:58;11.13;;;3.87;;
75971;SDS011;64651;47.540;19.088;2024-03-07T07:06:02;10.90;;;4.53;;
75971;SDS011;64651;47.540;19.088;2024-03-07T07:11:07;12.23;;;5.17;;
75971;SDS011;64651;47.540;19.088;2024-03-07T07:16:10;10.27;;;4.55;;
75971;SDS011;64651;47.540;19.088;2024-03-07T07:21:12;12.93;;;4.95;;
75971;SDS011;64651;47.540;19.088;2024-03-07T07:26:17;13.10;;;5.13;;
75971;SDS011;64651;47.540;19.088;2024-03-07T07:31:20;11.10;;;4.85;;
75971;SDS011;64651;47.540;19.088;2024-03-07T07:36:22;10.87;;;4.67;;
75971;SDS011;64651;47.540;19.088;2024-03-07T07:41:28;9.75;;;4.22;;
75971;SDS011;64651;47.540;19.088;2024-03-07T07:46:30;10.02;;;4.50;;
75971;SDS011;64651;47.540;19.088;2024-03-07T07:51:39;9.73;;;4.20;;
75971;SDS011;64651;47.540;19.088;2024-03-07T07:56:41;10.57;;;4.80;;
75971;SDS011;64651;47.540;19.088;2024-03-07T08:01:44;10.03;;;4.37;;
75971;SDS011;64651;47.540;19.088;2024-03-07T08:06:46;9.88;;;4.25;;
75971;SDS011;64651;47.540;19.088;2024-03-07T08:11:48;10.20;;;4.50;;
75971;SDS011;64651;47.540;19.088;2024-03-07T08:16:52;10.80;;;4.60;;
75971;SDS011;64651;47.540;19.088;2024-03-07T08:21:54;10.88;;;4.80;;
75971;SDS011;64651;47.540;19.088;2024-03-07T08:26:57;10.30;;;4.43;;
75971;SDS011;64651;47.540;19.088;2024-03-07T08:31:59;11.95;;;5.00;;
75971;SDS011;64651;47.540;19.088;2024-03-07T08:37:01;10.48;;;4.45;;
75971;SDS011;64651;47.540;19.088;2024-03-07T08:42:06;9.80;;;4.37;;
75971;SDS011;64651;47.540;19.088;2024-03-07T08:47:09;9.10;;;4.10;;
75971;SDS011;64651;47.540;19.088;2024-03-07T08:52:12;10.07;;;4.50;;
75971;SDS011;64651;47.540;19.088;2024-03-07T08:57:14;10.00;;;3.97;;
75971;SDS011;64651;47.540;19.088;2024-03-07T09:02:18;8.80;;;3.85;;
75971;SDS011;64651;47.540;19.088;2024-03-07T09:07:21;9.37;;;4.07;;
75971;SDS011;64651;47.540;19.088;2024-03-07T09:12:23;9.52;;;3.90;;
75971;SDS011;64651;47.540;19.088;2024-03-07T09:17:27;9.77;;;4.17;;
75971;SDS011;64651;47.540;19.088;2024-03-07T09:22:29;10.10;;;4.62;;
75971;SDS011;64651;47.540;19.088;2024-03-07T09:27:31;10.30;;;4.47;;
75971;SDS011;64651;47.540;19.088;2024-03-07T09:32:33;10.10;;;4.50;;
75971;SDS011;64651;47.540;19.088;2024-03-07T09:37:36;9.43;;;4.57;;
75971;SDS011;64651;47.540;19.088;2024-03-07T09:42:42;10.57;;;5.00;;
75971;SDS011;64651;47.540;19.088;2024-03-07T09:47:48;11.77;;;5.30;;
75971;SDS011;64651;47.540;19.088;2024-03-07T09:52:53;10.85;;;5.32;;
75971;SDS011;64651;47.540;19.088;2024-03-07T09:57:57;13.63;;;5.73;;
75971;SDS011;64651;47.540;19.088;2024-03-07T10:03:05;12.27;;;5.85;;
75971;SDS011;64651;47.540;19.088;2024-03-07T10:08:09;12.03;;;5.80;;
75971;SDS011;64651;47.540;19.088;2024-03-07T10:13:13;11.43;;;5.50;;
75971;SDS011;64651;47.540;19.088;2024-03-07T10:18:15;12.43;;;6.18;;
75971;SDS011;64651;47.540;19.088;2024-03-07T10:23:21;15.23;;;6.43;;
75971;SDS011;64651;47.540;19.088;2024-03-07T10:28:26;12.80;;;5.72;;
75971;SDS011;64651;47.540;19.088;2024-03-07T10:33:30;11.33;;;5.07;;
75971;SDS011;64651;47.540;19.088;2024-03-07T10:38:36;11.88;;;5.30;;
75971;SDS011;64651;47.540;19.088;2024-03-07T10:43:39;11.12;;;5.65;;
75971;SDS011;64651;47.540;19.088;2024-03-07T10:48:44;12.33;;;5.83;;
75971;SDS011;64651;47.540;19.088;2024-03-07T10:53:59;12.52;;;6.40;;
75971;SDS011;64651;47.540;19.088;2024-03-07T10:59:17;12.30;;;5.70;;
75971;SDS011;64651;47.540;19.088;2024-03-07T11:04:22;11.75;;;5.43;;
75971;SDS011;64651;47.540;19.088;2024-03-07T11:09:24;12.45;;;5.80;;
75971;SDS011;64651;47.540;19.088;2024-03-07T11:14:31;12.73;;;5.90;;
75971;SDS011;64651;47.540;19.088;2024-03-07T11:19:36;12.75;;;5.75;;
75971;SDS011;64651;47.540;19.088;2024-03-07T11:24:39;13.00;;;5.93;;
75971;SDS011;64651;47.540;19.088;2024-03-07T11:29:48;11.65;;;5.78;;
75971;SDS011;64651;47.540;19.088;2024-03-07T11:34:56;11.25;;;5.45;;
75971;SDS011;64651;47.540;19.088;2024-03-07T11:39:59;14.10;;;5.53;;
75971;SDS011;64651;47.540;19.088;2024-03-07T11:45:10;12.70;;;6.05;;
75971;SDS011;64651;47.540;19.088;2024-03-07T11:50:21;13.30;;;6.20;;
75971;SDS011;64651;47.540;19.088;2024-03-07T11:55:26;12.88;;;6.18;;
75971;SDS011;64651;47.540;19.088;2024-03-07T12:00:35;12.45;;;5.68;;
75971;SDS011;64651;47.540;19.088;2024-03-07T12:05:37;13.63;;;6.10;;
75971;SDS011;64651;47.540;19.088;2024-03-07T12:10:41;13.35;;;6.10;;
75971;SDS011;64651;47.540;19.088;2024-03-07T12:15:50;13.83;;;6.00;;
75971;SDS011;64651;47.540;19.088;2024-03-07T12:20:57;12.60;;;6.18;;
75971;SDS011;64651;47.540;19.088;2024-03-07T12:26:01;12.27;;;5.87;;
75971;SDS011;64651;47.540;19.088;2024-03-07T12:31:05;12.75;;;6.00;;
75971;SDS011;64651;47.540;19.088;2024-03-07T12:36:18;14.23;;;6.15;;
75971;SDS011;64651;47.540;19.088;2024-03-07T12:41:20;14.93;;;6.40;;
75971;SDS011;64651;47.540;19.088;2024-03-07T12:46:24;14.93;;;6.93;;
75971;SDS011;64651;47.540;19.088;2024-03-07T12:51:27;16.70;;;6.90;;
75971;SDS011;64651;47.540;19.088;2024-03-07T12:56:29;13.35;;;6.15;;
75971;SDS011;64651;47.540;19.088;2024-03-07T13:01:36;12.43;;;5.40;;
75971;SDS011;64651;47.540;19.088;2024-03-07T13:06:46;12.87;;;5.70;;
75971;SDS011;64651;47.540;19.088;2024-03-07T13:11:49;13.45;;;6.07;;
75971;SDS011;64651;47.540;19.088;2024-03-07T13:16:51;11.87;;;5.37;;
75971;SDS011;64651;47.540;19.088;2024-03-07T13:21:54;12.48;;;5.35;;
75971;SDS011;64651;47.540;19.088;2024-03-07T13:26:56;17.50;;;8.95;;
75971;SDS011;64651;47.540;19.088;2024-03-07T13:31:58;13.97;;;6.57;;
75971;SDS011;64651;47.540;19.088;2024-03-07T13:37:01;12.88;;;6.10;;
75971;SDS011;64651;47.540;19.088;2024-03-07T13:42:03;14.63;;;6.40;;
75971;SDS011;64651;47.540;19.088;2024-03-07T13:47:07;13.32;;;6.45;;
75971;SDS011;64651;47.540;19.088;2024-03-07T13:52:09;14.23;;;6.18;;
75971;SDS011;64651;47.540;19.088;2024-03-07T13:57:21;32.00;;;12.50;;
75971;SDS011;64651;47.540;19.088;2024-03-07T14:18:52;13.35;;;6.07;;
75971;SDS011;64651;47.540;19.088;2024-03-07T14:35:03;16.10;;;6.97;;
75971;SDS011;64651;47.540;19.088;2024-03-07T14:40:17;13.20;;;6.18;;
75971;SDS011;64651;47.540;19.088;2024-03-07T14:45:21;14.27;;;5.87;;
75971;SDS011;64651;47.540;19.088;2024-03-07T14:50:27;15.70;;;6.23;;
75971;SDS011;64651;47.540;19.088;2024-03-07T14:55:32;13.52;;;6.35;;
75971;SDS011;64651;47.540;19.088;2024-03-07T15:00:36;12.60;;;5.87;;
75971;SDS011;64651;47.540;19.088;2024-03-07T15:05:57;13.23;;;5.30;;
75971;SDS011;64651;47.540;19.088;2024-03-07T15:11:08;13.55;;;5.95;;
75971;SDS011;64651;47.540;19.088;2024-03-07T15:16:15;14.30;;;6.40;;
75971;SDS011;64651;47.540;19.088;2024-03-07T15:21:34;15.20;;;6.43;;
75971;SDS011;64651;47.540;19.088;2024-03-07T15:26:39;14.30;;;5.93;;
75971;SDS011;64651;47.540;19.088;2024-03-07T15:31:41;15.98;;;6.72;;
75971;SDS011;64651;47.540;19.088;2024-03-07T15:36:43;16.12;;;6.30;;
75971;SDS011;64651;47.540;19.088;2024-03-07T15:41:45;16.20;;;6.80;;
75971;SDS011;64651;47.540;19.088;2024-03-07T15:46:48;15.38;;;6.95;;
75971;SDS011;64651;47.540;19.088;2024-03-07T15:51:51;15.80;;;7.17;;
75971;SDS011;64651;47.540;19.088;2024-03-07T15:56:53;16.02;;;6.72;;
75971;SDS011;64651;47.540;19.088;2024-03-07T16:01:55;14.73;;;6.78;;
75971;SDS011;64651;47.540;19.088;2024-03-07T16:06:58;15.10;;;6.80;;
75971;SDS011;64651;47.540;19.088;2024-03-07T16:12:00;14.82;;;7.18;;
75971;SDS011;64651;47.540;19.088;2024-03-07T16:17:03;15.33;;;6.97;;
75971;SDS011;64651;47.540;19.088;2024-03-07T16:22:07;14.65;;;7.05;;
75971;SDS011;64651;47.540;19.088;2024-03-07T16:27:09;13.82;;;6.65;;
75971;SDS011;64651;47.540;19.088;2024-03-07T16:32:12;13.73;;;6.23;;
75971;SDS011;64651;47.540;19.088;2024-03-07T16:37:16;13.85;;;5.65;;
75971;SDS011;64651;47.540;19.088;2024-03-07T16:42:18;18.50;;;7.93;;
75971;SDS011;64651;47.540;19.088;2024-03-07T16:47:20;18.27;;;7.72;;
75971;SDS011;64651;47.540;19.088;2024-03-07T16:52:25;14.50;;;6.47;;
75971;SDS011;64651;47.540;19.088;2024-03-07T16:57:28;14.57;;;6.93;;
75971;SDS011;64651;47.540;19.088;2024-03-07T17:02:30;16.25;;;6.57;;
75971;SDS011;64651;47.540;19.088;2024-03-07T17:07:33;15.03;;;6.90;;
75971;SDS011;64651;47.540;19.088;2024-03-07T17:12:35;14.52;;;6.68;;
75971;SDS011;64651;47.540;19.088;2024-03-07T17:17:38;15.50;;;6.28;;
75971;SDS011;64651;47.540;19.088;2024-03-07T17:22:42;15.90;;;7.33;;
75971;SDS011;64651;47.540;19.088;2024-03-07T17:27:46;16.55;;;7.87;;
75971;SDS011;64651;47.540;19.088;2024-03-07T17:32:52;17.27;;;7.53;;
75971;SDS011;64651;47.540;19.088;2024-03-07T17:37:54;14.95;;;6.70;;
75971;SDS011;64651;47.540;19.088;2024-03-07T17:42:57;15.80;;;6.47;;
75971;SDS011;64651;47.540;19.088;2024-03-07T17:47:59;16.57;;;6.23;;
75971;SDS011;64651;47.540;19.088;2024-03-07T17:53:03;16.55;;;7.03;;
75971;SDS011;64651;47.540;19.088;2024-03-07T17:58:12;14.47;;;6.57;;
75971;SDS011;64651;47.540;19.088;2024-03-07T18:03:16;14.90;;;6.43;;
75971;SDS011;64651;47.540;19.088;2024-03-07T18:08:19;17.90;;;7.28;;
75971;SDS011;64651;47.540;19.088;2024-03-07T18:13:41;15.27;;;6.90;;
75971;SDS011;64651;47.540;19.088;2024-03-07T18:18:44;17.12;;;7.57;;
75971;SDS011;64651;47.540;19.088;2024-03-07T18:23:48;16.17;;;7.20;;
75971;SDS011;64651;47.540;19.088;2024-03-07T18:28:51;18.00;;;7.72;;
75971;SDS011;64651;47.540;19.088;2024-03-07T18:34:04;17.92;;;8.13;;
75971;SDS011;64651;47.540;19.088;2024-03-07T18:39:08;19.47;;;8.40;;
75971;SDS011;64651;47.540;19.088;2024-03-07T18:44:17;18.27;;;8.52;;
75971;SDS011;64651;47.540;19.088;2024-03-07T18:49:19;21.33;;;9.60;;
75971;SDS011;64651;47.540;19.088;2024-03-07T18:54:21;17.20;;;7.90;;
75971;SDS011;64651;47.540;19.088;2024-03-07T18:59:25;15.85;;;7.05;;
75971;SDS011;64651;47.540;19.088;2024-03-07T19:04:28;16.20;;;7.10;;
75971;SDS011;64651;47.540;19.088;2024-03-07T19:09:31;15.25;;;6.55;;
75971;SDS011;64651;47.540;19.088;2024-03-07T19:14:34;16.03;;;7.07;;
75971;SDS011;64651;47.540;19.088;2024-03-07T19:19:36;17.55;;;7.43;;
75971;SDS011;64651;47.540;19.088;2024-03-07T19:24:38;16.80;;;7.40;;
75971;SDS011;64651;47.540;19.088;2024-03-07T19:29:45;17.00;;;7.50;;
75971;SDS011;64651;47.540;19.088;2024-03-07T19:34:49;14.63;;;6.20;;
75971;SDS011;64651;47.540;19.088;2024-03-07T19:39:52;16.93;;;7.17;;
75971;SDS011;64651;47.540;19.088;2024-03-07T19:44:56;17.08;;;7.43;;
75971;SDS011;64651;47.540;19.088;2024-03-07T19:49:59;19.15;;;7.68;;
75971;SDS011;64651;47.540;19.088;2024-03-07T19:55:01;16.57;;;6.73;;
75971;SDS011;64651;47.540;19.088;2024-03-07T20:00:06;16.45;;;7.35;;
75971;SDS011;64651;47.540;19.088;2024-03-07T20:05:17;16.23;;;7.07;;
75971;SDS011;64651;47.540;19.088;2024-03-07T20:10:21;17.75;;;7.30;;
75971;SDS011;64651;47.540;19.088;2024-03-07T20:15:24;16.58;;;7.03;;
75971;SDS011;64651;47.540;19.088;2024-03-07T20:20:27;16.30;;;7.87;;
75971;SDS011;64651;47.540;19.088;2024-03-07T20:25:31;18.17;;;7.95;;
75971;SDS011;64651;47.540;19.088;2024-03-07T20:30:33;18.63;;;7.93;;
75971;SDS011;64651;47.540;19.088;2024-03-07T20:35:36;17.42;;;7.43;;
75971;SDS011;64651;47.540;19.088;2024-03-07T20:40:39;17.75;;;7.20;;
75971;SDS011;64651;47.540;19.088;2024-03-07T20:45:41;17.93;;;7.90;;
75971;SDS011;64651;47.540;19.088;2024-03-07T20:50:43;17.30;;;7.95;;
75971;SDS011;64651;47.540;19.088;2024-03-07T20:55:45;19.67;;;8.40;;
75971;SDS011;64651;47.540;19.088;2024-03-07T21:00:47;18.12;;;8.20;;
75971;SDS011;64651;47.540;19.088;2024-03-07T21:05:51;21.35;;;8.85;;
75971;SDS011;64651;47.540;19.088;2024-03-07T21:10:53;19.03;;;7.63;;
75971;SDS011;64651;47.540;19.088;2024-03-07T21:15:57;20.67;;;8.38;;
75971;SDS011;64651;47.540;19.088;2024-03-07T21:20:59;19.50;;;7.90;;
75971;SDS011;64651;47.540;19.088;2024-03-07T21:26:01;20.40;;;8.30;;
75971;SDS011;64651;47.540;19.088;2024-03-07T21:31:03;19.48;;;8.13;;
75971;SDS011;64651;47.540;19.088;2024-03-07T21:36:09;20.27;;;8.60;;
75971;SDS011;64651;47.540;19.088;2024-03-07T21:41:40;19.27;;;8.35;;
75971;SDS011;64651;47.540;19.088;2024-03-07T21:46:42;19.83;;;7.47;;
75971;SDS011;64651;47.540;19.088;2024-03-07T21:51:45;20.67;;;8.52;;
75971;SDS011;64651;47.540;19.088;2024-03-07T21:56:50;21.52;;;8.70;;
75971;SDS011;64651;47.540;19.088;2024-03-07T22:01:54;19.50;;;8.40;;
75971;SDS011;64651;47.540;19.088;2024-03-07T22:06:57;19.77;;;7.93;;
75971;SDS011;64651;47.540;19.088;2024-03-07T22:11:59;19.23;;;8.13;;
75971;SDS011;64651;47.540;19.088;2024-03-07T22:17:01;20.73;;;8.45;;
75971;SDS011;64651;47.540;19.088;2024-03-07T22:22:07;21.70;;;8.57;;
75971;SDS011;64651;47.540;19.088;2024-03-07T22:27:09;20.60;;;8.67;;
75971;SDS011;64651;47.540;19.088;2024-03-07T22:32:12;21.50;;;8.85;;
75971;SDS011;64651;47.540;19.088;2024-03-07T22:37:14;21.33;;;8.97;;
75971;SDS011;64651;47.540;19.088;2024-03-07T22:42:17;23.33;;;9.27;;
75971;SDS011;64651;47.540;19.088;2024-03-07T22:47:20;21.85;;;8.90;;
75971;SDS011;64651;47.540;19.088;2024-03-07T22:52:23;23.13;;;9.30;;
75971;SDS011;64651;47.540;19.088;2024-03-07T22:57:25;22.50;;;9.70;;
75971;SDS011;64651;47.540;19.088;2024-03-07T23:02:28;23.50;;;9.80;;
75971;SDS011;64651;47.540;19.088;2024-03-07T23:07:30;21.30;;;8.43;;
75971;SDS011;64651;47.540;19.088;2024-03-07T23:12:32;22.77;;;9.18;;
75971;SDS011;64651;47.540;19.088;2024-03-07T23:17:35;22.43;;;9.23;;
75971;SDS011;64651;47.540;19.088;2024-03-07T23:22:43;22.87;;;9.45;;
75971;SDS011;64651;47.540;19.088;2024-03-07T23:27:45;24.70;;;9.87;;
75971;SDS011;64651;47.540;19.088;2024-03-07T23:32:52;22.42;;;9.65;;
75971;SDS011;64651;47.540;19.088;2024-03-07T23:37:55;23.15;;;9.35;;
75971;SDS011;64651;47.540;19.088;2024-03-07T23:42:59;23.77;;;9.77;;
75971;SDS011;64651;47.540;19.088;2024-03-07T23:48:02;22.60;;;9.45;;
75971;SDS011;64651;47.540;19.088;2024-03-07T23:53:05;21.77;;;9.67;;
